Time;durP1;ratioP1;P1;durP2;ratioP2;P2;SDS_P1;SDS_P2;PMS_P1;PMS_P2;Temp;Humidity;BMP_temperature;BMP_pressure;BME280_temperature;BME280_humidity;BME280_pressure;Samples;Min_cycle;Max_cycle;Signal;HPM_P1;HPM_P2
2022/01/16 00:00:46;;;;;;;29.88;18.25;;;;;;;-144.19;100.00;78567.81;6182591;23;20355;-90
2022/01/16 00:05:59;;;;;;;32.10;21.30;;;;;;;-144.19;100.00;78544.19;6182147;23;20017;-91
2022/01/16 00:08:26;;;;;;;29.60;19.58;;;;;;;-144.19;100.00;78548.13;6180728;23;20087;-90
2022/01/16 00:10:52;;;;;;;33.50;22.58;;;;;;;-144.19;100.00;78518.56;6181416;23;20096;-91
2022/01/16 00:13:19;;;;;;;29.33;20.00;;;;;;;-144.19;100.00;78536.31;6180166;23;20017;-91
2022/01/16 00:15:46;;;;;;;25.73;16.80;;;;;;;-144.19;100.00;78585.53;6182524;23;20104;-91
2022/01/16 00:18:25;;;;;;;26.50;16.93;;;;;;;-144.19;100.00;78583.56;6182450;23;20028;-91
2022/01/16 00:20:51;;;;;;;29.30;19.17;;;;;;;-144.19;100.00;78579.63;6182732;23;20035;-91
2022/01/16 00:23:26;;;;;;;25.85;17.20;;;;;;;-144.19;100.00;78581.59;6183826;23;20017;-91
2022/01/16 00:25:54;;;;;;;27.95;17.23;;;;;;;-144.19;100.00;78607.19;6183122;23;20029;-91
2022/01/16 00:28:22;;;;;;;26.33;17.27;;;;;;;-144.19;100.00;78569.78;6182304;23;20036;-91
2022/01/16 00:30:50;;;;;;;28.35;16.55;;;;;;;-144.19;100.00;78597.34;6183798;23;20021;-91
2022/01/16 00:33:17;;;;;;;32.72;19.60;;;;;;;-144.19;100.00;78567.81;6183742;23;20025;-92
2022/01/16 00:35:44;;;;;;;31.75;19.38;;;;;;;-144.19;100.00;78595.38;6184365;23;20043;-91
2022/01/16 00:38:11;;;;;;;27.95;17.58;;;;;;;-144.19;100.00;78579.63;6207289;23;20023;-91
2022/01/16 00:40:37;;;;;;;24.17;17.10;;;;;;;-144.19;100.00;78567.81;6182743;23;20021;-91
2022/01/16 00:43:04;;;;;;;27.05;16.90;;;;;;;-144.19;100.00;78621.00;6183851;23;20017;-91
2022/01/16 00:45:34;;;;;;;25.33;16.55;;;;;;;-144.19;100.00;78630.84;6182498;23;20017;-91
2022/01/16 00:48:04;;;;;;;28.25;17.88;;;;;;;-144.19;100.00;78603.25;6181858;23;20021;-91
2022/01/16 00:50:33;;;;;;;35.25;20.15;;;;;;;-144.19;100.00;78591.44;6182561;23;20017;-91
2022/01/16 00:53:00;;;;;;;30.73;18.65;;;;;;;-144.19;100.00;78589.47;6180907;23;20357;-91
2022/01/16 00:55:27;;;;;;;30.35;18.00;;;;;;;-144.19;100.00;78579.63;6183433;23;20025;-91
2022/01/16 00:57:54;;;;;;;35.70;18.33;;;;;;;-144.19;100.00;78591.44;6182262;23;20017;-91
2022/01/16 01:00:20;;;;;;;32.45;17.27;;;;;;;-144.19;100.00;78563.88;6183632;23;20335;-91
2022/01/16 01:02:47;;;;;;;31.70;15.15;;;;;;;-144.19;100.00;78632.81;6182986;23;20044;-91
2022/01/16 01:05:13;;;;;;;28.65;15.77;;;;;;;-144.19;100.00;78662.34;6183546;23;20043;-91
2022/01/16 01:07:40;;;;;;;32.05;17.35;;;;;;;-144.19;100.00;78664.31;6183400;23;20393;-91
2022/01/16 01:10:30;;;;;;;33.90;16.83;;;;;;;-144.19;100.00;78658.41;6183720;23;20410;-91
2022/01/16 01:13:07;;;;;;;33.38;16.88;;;;;;;-144.19;100.00;78646.59;6180835;23;20028;-91
2022/01/16 01:15:42;;;;;;;37.17;17.65;;;;;;;-144.19;100.00;78626.91;6183930;23;20020;-91
2022/01/16 01:18:09;;;;;;;42.28;20.13;;;;;;;-144.19;100.00;78624.94;6184979;23;20017;-91
2022/01/16 01:20:38;;;;;;;40.78;21.75;;;;;;;-144.19;100.00;78619.03;6183253;23;20373;-91
2022/01/16 01:23:04;;;;;;;33.97;18.77;;;;;;;-144.19;100.00;78628.88;6183327;23;20051;-91
2022/01/16 01:25:31;;;;;;;40.50;21.48;;;;;;;-144.19;100.00;78619.03;6183034;23;20060;-90
2022/01/16 01:27:57;;;;;;;44.15;20.65;;;;;;;-144.19;100.00;78650.53;6182190;23;20037;-91
2022/01/16 01:30:24;;;;;;;40.95;20.25;;;;;;;-144.19;100.00;78648.56;6184560;23;20466;-91
2022/01/16 01:32:53;;;;;;;61.13;28.20;;;;;;;-144.19;100.00;78638.72;6182648;23;20017;-90
2022/01/16 01:35:20;;;;;;;39.42;19.55;;;;;;;-144.19;100.00;78654.47;6183692;23;20032;-91
2022/01/16 01:37:47;;;;;;;41.63;20.90;;;;;;;-144.19;100.00;78654.47;6206929;23;20573;-90
2022/01/16 01:40:16;;;;;;;;;;;;;;;-144.19;100.00;78634.78;6182497;23;20029;-91
2022/01/16 01:42:47;;;;;;;33.63;17.17;;;;;;;-144.19;100.00;78624.94;6181780;23;19916;-91
2022/01/16 01:51:32;;;;;;;34.92;18.52;;;;;;;-144.19;100.00;78567.81;6183366;23;20031;-90
2022/01/16 01:54:00;;;;;;;40.95;22.10;;;;;;;-144.19;100.00;78548.13;6183372;23;20292;-91
2022/01/16 01:56:27;;;;;;;41.58;22.98;;;;;;;-144.19;100.00;78544.19;6181437;23;20021;-91
2022/01/16 01:58:56;;;;;;;46.17;24.10;;;;;;;-144.19;100.00;78542.22;6180775;23;20021;-91
2022/01/16 02:01:23;;;;;;;48.92;24.52;;;;;;;-144.19;100.00;78563.88;6182622;23;20024;-91
2022/01/16 02:03:50;;;;;;;50.50;27.35;;;;;;;-144.19;100.00;78550.09;6181620;23;20025;-91
2022/01/16 02:06:19;;;;;;;40.20;21.27;;;;;;;-144.19;100.00;78559.94;6182039;23;20039;-91
2022/01/16 02:08:51;;;;;;;48.08;24.27;;;;;;;-144.19;100.00;78571.75;6182780;23;20017;-90
2022/01/16 02:11:19;;;;;;;42.30;22.17;;;;;;;-144.19;100.00;78548.13;6182197;23;20027;-91
2022/01/16 02:30:47;;;;;;;36.58;18.77;;;;;;;-144.19;100.00;78544.19;6184139;23;20031;-90
2022/01/16 02:35:41;;;;;;;38.10;18.67;;;;;;;-144.19;100.00;78540.25;6183442;23;20414;-91
2022/01/16 02:38:09;;;;;;;36.67;17.60;;;;;;;-144.19;100.00;78569.78;6182100;23;20025;-91
2022/01/16 02:40:37;;;;;;;35.35;16.85;;;;;;;-144.19;100.00;78563.88;6181687;23;20031;-91
2022/01/16 02:43:05;;;;;;;35.72;18.38;;;;;;;-144.19;100.00;78540.25;6182202;23;20029;-91
2022/01/16 02:45:34;;;;;;;39.97;20.05;;;;;;;-144.19;100.00;78536.31;6184400;23;20021;-91
2022/01/16 02:48:05;;;;;;;41.35;21.02;;;;;;;-144.19;100.00;78544.19;6183077;23;20025;-91
2022/01/16 02:50:36;;;;;;;39.38;19.67;;;;;;;-144.19;100.00;78528.44;6157671;23;20017;-89
2022/01/16 02:53:09;;;;;;;40.17;19.50;;;;;;;-144.19;100.00;78565.84;6156558;23;20025;-91
2022/01/16 02:55:40;;;;;;;45.05;22.48;;;;;;;-144.19;100.00;78516.59;6157397;23;20021;-91
2022/01/16 02:58:07;;;;;;;39.10;20.60;;;;;;;-144.19;100.00;78504.78;6156411;23;20104;-91
2022/01/16 03:00:33;;;;;;;37.60;19.30;;;;;;;-144.19;100.00;78524.50;6157154;23;20017;-91
2022/01/16 03:03:00;;;;;;;39.63;19.33;;;;;;;-144.19;100.00;78516.59;6156621;23;20181;-92
2022/01/16 03:05:27;;;;;;;40.55;22.42;;;;;;;-144.19;100.00;78500.84;6157021;23;20461;-91
2022/01/16 03:07:53;;;;;;;42.17;22.83;;;;;;;-144.19;100.00;78496.91;6157401;23;20021;-91
2022/01/16 03:12:49;;;;;;;44.53;23.48;;;;;;;-144.19;100.00;78477.22;6183078;23;20539;-91
2022/01/16 03:15:17;;;;;;;42.03;22.58;;;;;;;-144.19;100.00;78473.28;6182967;23;20357;-91
2022/01/16 03:23:18;;;;;;;37.20;19.30;;;;;;;-144.19;100.00;78457.53;6182867;23;20025;-91
2022/01/16 03:25:49;;;;;;;46.50;24.80;;;;;;;-144.19;100.00;78437.84;6156203;23;20470;-91
2022/01/16 03:28:17;;;;;;;41.83;21.50;;;;;;;-144.19;100.00;78443.75;6156500;23;20472;-90
2022/01/16 03:30:44;;;;;;;42.28;21.67;;;;;;;-144.19;100.00;78441.78;6182836;23;20021;-91
2022/01/16 03:33:11;;;;;;;;;;;;;;;-144.19;100.00;78426.03;6157724;23;20035;-91
2022/01/16 03:35:38;;;;;;;37.60;20.05;;;;;;;-144.19;100.00;78429.97;6157319;23;20234;-91
2022/01/16 03:38:04;;;;;;;41.88;23.30;;;;;;;-144.19;100.00;78447.69;6182804;23;20035;-91
2022/01/16 03:40:31;;;;;;;48.72;26.23;;;;;;;-144.19;100.00;78437.84;6182547;23;20020;-91
2022/01/16 03:43:04;;;;;;;44.35;22.08;;;;;;;-144.19;100.00;78457.53;6156366;23;20017;-92
2022/01/16 03:45:31;;;;;;;43.55;21.35;;;;;;;-144.19;100.00;78467.38;6157657;23;20064;-91
2022/01/16 03:47:58;;;;;;;44.30;23.73;;;;;;;-144.19;100.00;78494.94;6176186;23;20462;-91
2022/01/16 03:50:25;;;;;;;46.28;23.30;;;;;;;-144.19;100.00;78457.53;6181932;23;20024;-91
2022/01/16 03:52:51;;;;;;;47.17;25.05;;;;;;;-144.19;100.00;78461.47;6182232;23;20104;-91
2022/01/16 03:55:19;;;;;;;50.90;25.53;;;;;;;-144.19;100.00;78451.63;6182823;23;20027;-92
2022/01/16 03:57:46;;;;;;;51.53;26.40;;;;;;;-144.19;100.00;78465.41;6180843;23;20596;-92
2022/01/16 04:00:12;;;;;;;48.35;24.25;;;;;;;-144.19;100.00;78471.31;6183182;23;20021;-91
2022/01/16 04:02:39;;;;;;;51.17;27.92;;;;;;;-144.19;100.00;78449.66;6182358;23;20469;-90
2022/01/16 04:05:05;;;;;;;49.90;25.02;;;;;;;-144.19;100.00;78489.03;6180676;23;20024;-92
2022/01/16 04:07:35;;;;;;;56.10;27.08;;;;;;;-144.19;100.00;78489.03;6181381;23;20021;-91
2022/01/16 04:10:05;;;;;;;58.80;26.88;;;;;;;-144.19;100.00;78477.22;6181071;23;20017;-91
2022/01/16 04:12:33;;;;;;;56.50;28.52;;;;;;;-144.19;100.00;78473.28;6180406;23;20372;-90
2022/01/16 04:17:26;;;;;;;57.60;27.27;;;;;;;-144.19;100.00;78471.31;6182820;23;20021;-91
2022/01/16 04:19:53;;;;;;;56.13;28.17;;;;;;;-144.19;100.00;78479.19;6182565;23;20021;-92
2022/01/16 04:22:20;;;;;;;57.58;26.98;;;;;;;-144.19;100.00;78461.47;6180619;23;20704;-91
2022/01/16 04:24:47;;;;;;;61.75;28.95;;;;;;;-144.19;100.00;78469.34;6181304;23;20357;-91
2022/01/16 04:27:14;;;;;;;;;;;;;;;-144.19;100.00;78459.50;6181781;23;20072;-91
2022/01/16 04:29:42;;;;;;;63.95;27.92;;;;;;;-144.19;100.00;78461.47;6181632;23;19916;-91
2022/01/16 04:32:10;;;;;;;67.65;29.33;;;;;;;-144.19;100.00;78457.53;6181016;23;20032;-91
2022/01/16 04:34:36;;;;;;;62.40;30.98;;;;;;;-144.19;100.00;78479.19;6181107;23;20024;-91
2022/01/16 04:37:03;;;;;;;68.65;30.13;;;;;;;-144.19;100.00;78487.06;6181199;23;20386;-92
2022/01/16 04:39:35;;;;;;;66.10;30.30;;;;;;;-144.19;100.00;78492.97;6183225;23;20021;-91
2022/01/16 04:44:49;;;;;;;67.27;32.67;;;;;;;-144.19;100.00;78487.06;6182571;23;20071;-91
2022/01/16 04:47:16;;;;;;;66.53;31.55;;;;;;;-144.19;100.00;78508.72;6177906;23;20656;-87
2022/01/16 04:49:43;;;;;;;54.42;28.02;;;;;;;-144.19;100.00;78512.66;6181804;23;20454;-87
2022/01/16 04:52:09;;;;;;;66.72;29.48;;;;;;;-144.19;100.00;78492.97;6183390;23;20025;-90
2022/01/16 04:54:36;;;;;;;54.33;26.60;;;;;;;-144.19;100.00;78496.91;6182739;23;20304;-89
2022/01/16 04:57:02;;;;;;;53.53;27.23;;;;;;;-144.19;100.00;78506.75;6181053;23;20263;-89
2022/01/16 04:59:28;;;;;;;59.45;27.25;;;;;;;-144.19;100.00;78516.59;6181993;23;20025;-89
2022/01/16 05:01:55;;;;;;;51.90;26.25;;;;;;;-144.19;100.00;78528.44;6182595;23;20033;-85
2022/01/16 05:04:21;;;;;;;52.45;25.65;;;;;;;-144.19;100.00;78516.59;6183649;23;20028;-89
2022/01/16 05:06:48;;;;;;;49.30;25.25;;;;;;;-144.19;100.00;78542.22;6184955;23;20031;-88
2022/01/16 05:09:14;;;;;;;53.28;27.52;;;;;;;-144.19;100.00;78522.50;6183699;23;20017;-87
2022/01/16 05:11:41;;;;;;;52.28;24.98;;;;;;;-144.19;100.00;78528.44;6182935;23;20017;-89
2022/01/16 05:16:52;;;;;;;53.75;26.80;;;;;;;-144.19;100.00;78498.88;6185314;23;20573;-88
2022/01/16 05:19:19;;;;;;;54.70;28.53;;;;;;;-144.19;100.00;78483.13;6183883;23;20031;-88
2022/01/16 05:21:45;;;;;;;58.63;28.13;;;;;;;-144.19;100.00;78498.88;6183280;23;20256;-88
2022/01/16 05:24:12;;;;;;;62.47;30.25;;;;;;;-144.19;100.00;78473.28;6183887;23;20021;-87
2022/01/16 05:26:42;;;;;;;65.18;30.25;;;;;;;-144.19;100.00;78467.38;6183742;23;20053;-88
2022/01/16 05:29:12;;;;;;;63.50;30.48;;;;;;;-144.19;100.00;78483.13;6183471;23;20056;-88
2022/01/16 05:31:44;;;;;;;65.35;30.65;;;;;;;-144.19;100.00;78512.66;6183649;23;20047;-88
2022/01/16 05:34:13;;;;;;;66.90;31.25;;;;;;;-144.19;100.00;78504.78;6184205;23;20025;-89
2022/01/16 05:36:39;;;;;;;64.93;33.28;;;;;;;-144.19;100.00;78491.00;6183577;23;20100;-88
2022/01/16 05:39:06;;;;;;;72.55;34.65;;;;;;;-144.19;100.00;78481.16;6184168;23;20021;-89
2022/01/16 05:41:32;;;;;;;60.97;27.85;;;;;;;-144.19;100.00;78518.56;6184431;23;20353;-89
2022/01/16 05:43:58;;;;;;;65.85;32.35;;;;;;;-144.19;100.00;78489.03;6183260;23;20529;-90
2022/01/16 05:46:25;;;;;;;64.03;31.80;;;;;;;-144.19;100.00;78477.22;6183664;23;20079;-90
2022/01/16 05:48:52;;;;;;;78.35;35.90;;;;;;;-144.19;100.00;78463.44;6159707;23;20028;-88
2022/01/16 05:51:18;;;;;;;72.20;33.80;;;;;;;-144.19;100.00;78459.50;6185030;23;20017;-87
2022/01/16 05:53:45;;;;;;;69.07;33.20;;;;;;;-144.19;100.00;78461.47;6184284;23;20017;-90
2022/01/16 05:56:12;;;;;;;68.70;32.55;;;;;;;-144.19;100.00;78426.03;6158369;23;20028;-90
2022/01/16 05:58:40;;;;;;;69.60;34.80;;;;;;;-144.19;100.00;78437.84;6159198;23;20465;-89
2022/01/16 06:01:06;;;;;;;78.38;34.47;;;;;;;-144.19;100.00;78437.84;6159515;23;20028;-88
2022/01/16 06:03:33;;;;;;;69.35;33.47;;;;;;;-144.19;100.00;78453.59;6158898;23;20025;-88
2022/01/16 06:06:00;;;;;;;64.10;30.52;;;;;;;-144.19;100.00;78467.38;6160267;23;20064;-86
2022/01/16 06:08:26;;;;;;;77.45;34.30;;;;;;;-144.19;100.00;78439.81;6159896;23;20031;-89
2022/01/16 06:10:53;;;;;;;80.32;35.88;;;;;;;-144.19;100.00;78449.66;6158283;23;20028;-88
2022/01/16 06:13:19;;;;;;;76.90;36.72;;;;;;;-144.19;100.00;78433.91;6158205;23;20021;-89
2022/01/16 06:15:46;;;;;;;74.67;34.20;;;;;;;-144.19;100.00;78416.19;6158782;23;20461;-88
2022/01/16 06:18:14;;;;;;;;;;;;;;;-144.19;100.00;78453.59;6159269;23;20248;-91
2022/01/16 06:20:41;;;;;;;69.82;32.75;;;;;;;-144.19;100.00;78443.75;6158979;23;19920;-89
2022/01/16 06:23:08;;;;;;;74.55;33.28;;;;;;;-144.19;100.00;78443.75;6158695;23;20108;-89
2022/01/16 06:25:35;;;;;;;75.00;34.92;;;;;;;-144.19;100.00;78441.78;6185162;23;20336;-87
2022/01/16 06:28:01;;;;;;;79.18;34.92;;;;;;;-144.19;100.00;78433.91;6158954;23;20029;-89
2022/01/16 06:30:28;;;;;;;71.82;33.53;;;;;;;-144.19;100.00;78418.13;6158235;23;20021;-88
2022/01/16 06:32:54;;;;;;;76.57;35.50;;;;;;;-144.19;100.00;78437.84;6157953;23;20055;-89
2022/01/16 06:35:20;;;;;;;81.97;35.07;;;;;;;-144.19;100.00;78414.19;6158933;23;20573;-88
2022/01/16 06:37:47;;;;;;;72.32;35.65;;;;;;;-144.19;100.00;78414.19;6157774;23;20072;-85
2022/01/16 06:40:15;;;;;;;74.43;33.38;;;;;;;-144.19;100.00;78426.03;6159590;23;20025;-88
2022/01/16 06:42:42;;;;;;;;;;;;;;;-144.19;100.00;78429.97;6158970;23;20028;-87
2022/01/16 06:45:10;;;;;;;73.85;34.47;;;;;;;-144.19;100.00;78429.97;6157973;23;19923;-89
2022/01/16 06:47:38;;;;;;;72.07;31.83;;;;;;;-144.19;100.00;78424.06;6171450;23;20109;-90
2022/01/16 06:50:07;;;;;;;75.82;35.55;;;;;;;-144.19;100.00;78404.34;6184054;23;20382;-89
2022/01/16 06:52:34;;;;;;;77.38;35.08;;;;;;;-144.19;100.00;78420.13;6182649;23;20028;-90
2022/01/16 06:55:01;;;;;;;69.70;32.50;;;;;;;-144.19;100.00;78435.88;6184521;23;20023;-90
2022/01/16 06:57:27;;;;;;;76.30;35.25;;;;;;;-144.19;100.00;78422.09;6183598;23;20473;-87
2022/01/16 06:59:54;;;;;;;74.70;34.05;;;;;;;-144.19;100.00;78402.38;6183506;23;20013;-88
2022/01/16 07:02:23;;;;;;;75.10;34.67;;;;;;;-144.19;100.00;78414.19;6186754;23;20368;-87
2022/01/16 07:04:50;;;;;;;74.55;34.40;;;;;;;-144.19;100.00;78418.13;6189486;23;20025;-88
2022/01/16 07:07:17;;;;;;;;;;;;;;;-144.19;100.00;78428.00;6187493;23;20740;-88
2022/01/16 07:09:45;;;;;;;74.75;31.70;;;;;;;-144.19;100.00;78433.91;6186876;23;19939;-86
2022/01/16 07:12:11;;;;;;;;;;;;;;;-144.19;100.00;78426.03;6187467;23;20028;-88
2022/01/16 07:14:38;;;;;;;77.57;35.22;;;;;;;-144.19;100.00;78390.56;6187980;23;19936;-86
2022/01/16 07:17:04;;;;;;;83.82;35.92;;;;;;;-144.19;100.00;78402.38;6186983;23;20490;-88
2022/01/16 07:19:31;;;;;;;86.57;36.40;;;;;;;-144.19;100.00;78404.34;6186423;23;20017;-88
2022/01/16 07:21:57;;;;;;;81.27;38.13;;;;;;;-144.19;100.00;78400.41;6186573;23;20100;-88
2022/01/16 07:24:23;;;;;;;80.73;35.17;;;;;;;-144.19;100.00;78412.22;6187263;23;20252;-89
2022/01/16 07:26:50;;;;;;;77.50;35.35;;;;;;;-144.19;100.00;78408.28;6186212;23;20197;-88
2022/01/16 07:29:17;;;;;;;84.13;39.97;;;;;;;-144.19;100.00;78429.97;6187385;23;20021;-89
2022/01/16 07:31:43;;;;;;;86.95;36.83;;;;;;;-144.19;100.00;78414.19;6185977;23;20021;-88
2022/01/16 07:34:10;;;;;;;82.88;36.75;;;;;;;-144.19;100.00;78424.06;6186018;23;20031;-89
2022/01/16 07:36:37;;;;;;;84.82;36.83;;;;;;;-144.19;100.00;78418.13;6187694;23;20021;-89
2022/01/16 07:39:04;;;;;;;75.40;34.25;;;;;;;-144.19;100.00;78418.13;6185634;23;20025;-90
2022/01/16 07:41:31;;;;;;;82.15;36.33;;;;;;;-144.19;100.00;78414.19;6188919;23;20028;-87
2022/01/16 07:43:57;;;;;;;88.93;39.45;;;;;;;-144.19;100.00;78402.38;6185263;23;20021;-90
2022/01/16 07:46:25;;;;;;;84.75;38.33;;;;;;;-144.19;100.00;78422.09;6184690;23;20481;-89
2022/01/16 07:48:51;;;;;;;89.47;38.20;;;;;;;-144.19;100.00;78428.00;6162098;23;20053;-88
2022/01/16 07:51:18;;;;;;;79.37;36.37;;;;;;;-144.19;100.00;78449.66;6160840;23;20422;-88
2022/01/16 07:53:44;;;;;;;88.87;40.10;;;;;;;-144.19;100.00;78426.03;6161301;23;20324;-91
2022/01/16 07:56:13;;;;;;;82.53;35.40;;;;;;;-144.19;100.00;78412.22;6160440;23;20028;-88
2022/01/16 07:58:41;;;;;;;88.43;38.83;;;;;;;-144.19;100.00;78418.13;6161179;23;20021;-88
2022/01/16 08:01:08;;;;;;;89.07;36.35;;;;;;;-144.19;100.00;78422.09;6160289;23;20028;-89
2022/01/16 08:03:35;;;;;;;83.88;36.47;;;;;;;-144.19;100.00;78435.88;6161217;23;20108;-87
2022/01/16 08:06:02;;;;;;;86.05;39.13;;;;;;;-144.19;100.00;78445.72;6162925;23;20071;-86
2022/01/16 08:08:28;;;;;;;87.57;38.42;;;;;;;-144.19;100.00;78428.00;6161949;23;20021;-88
2022/01/16 08:10:55;;;;;;;79.53;35.78;;;;;;;-144.19;100.00;78414.19;6159648;23;20027;-89
2022/01/16 08:13:21;;;;;;;85.90;37.72;;;;;;;-144.19;100.00;78414.19;6161039;23;20021;-86
2022/01/16 08:15:48;;;;;;;77.40;35.97;;;;;;;-144.19;100.00;78437.84;6159727;23;20031;-88
2022/01/16 08:18:15;;;;;;;81.22;36.33;;;;;;;-144.19;100.00;78437.84;6185412;23;20031;-87
2022/01/16 08:20:42;;;;;;;76.10;34.70;;;;;;;-144.19;100.00;78426.03;6185525;23;20021;-88
2022/01/16 08:23:08;;;;;;;82.22;36.13;;;;;;;-144.19;100.00;78404.34;6158665;23;20361;-88
2022/01/16 08:25:35;;;;;;;94.70;38.30;;;;;;;-144.19;100.00;78418.13;6188618;23;20029;-89
2022/01/16 08:28:02;;;;;;;86.88;36.00;;;;;;;-144.19;100.00;78426.03;6162031;23;20245;-88
2022/01/16 08:30:28;;;;;;;77.45;35.70;;;;;;;-144.19;100.00;78410.25;6161088;23;20024;-86
2022/01/16 08:32:55;;;;;;;74.00;35.13;;;;;;;-144.19;100.00;78431.94;6188360;23;20017;-86
2022/01/16 08:35:22;;;;;;;91.00;38.17;;;;;;;-144.19;100.00;78408.28;6162943;23;20021;-89
2022/01/16 08:37:48;;;;;;;79.32;37.00;;;;;;;-144.19;100.00;78398.44;6164506;23;20828;-88
2022/01/16 08:40:15;;;;;;;75.38;33.65;;;;;;;-144.19;100.00;78394.50;6164556;23;20036;-85
2022/01/16 08:42:42;;;;;;;79.40;32.45;;;;;;;-144.19;100.00;78382.69;6170802;23;20025;-89
2022/01/16 08:45:09;;;;;;;81.38;36.28;;;;;;;-144.19;100.00;78363.00;6165583;23;20021;-85
2022/01/16 08:47:35;;;;;;;75.78;34.50;;;;;;;-144.19;100.00;78378.75;6190800;23;20101;-87
2022/01/16 08:50:04;;;;;;;74.00;33.85;;;;;;;-144.19;100.00;78374.81;6163078;23;20017;-87
2022/01/16 08:52:31;;;;;;;74.78;32.92;;;;;;;-144.19;100.00;78366.94;6164340;23;20096;-86
2022/01/16 08:54:57;;;;;;;76.03;33.97;;;;;;;-144.19;100.00;78351.19;6165040;23;20024;-87
2022/01/16 08:57:23;;;;;;;80.18;35.42;;;;;;;-144.19;100.00;78359.06;6190122;23;20021;-84
2022/01/16 08:59:50;;;;;;;75.17;34.83;;;;;;;-144.19;100.00;78349.22;6191805;23;20080;-88
2022/01/16 09:02:17;;;;;;;79.63;34.55;;;;;;;-144.19;100.00;78345.28;6161157;23;20260;-86
2022/01/16 09:04:44;;;;;;;79.43;35.83;;;;;;;-144.19;100.00;78359.06;6188647;23;20472;-86
2022/01/16 09:07:10;;;;;;;80.53;36.72;;;;;;;-144.19;100.00;78364.97;6161787;23;20104;-85
2022/01/16 09:09:36;;;;;;;84.13;37.42;;;;;;;-144.19;100.00;78364.97;6165014;23;20027;-89
2022/01/16 09:12:03;;;;;;;81.63;35.87;;;;;;;-144.19;100.00;78364.97;6165164;23;20024;-88
2022/01/16 09:14:29;;;;;;;76.28;35.90;;;;;;;-144.19;100.00;78359.06;6166036;23;20488;-88
2022/01/16 09:16:56;;;;;;;77.87;37.13;;;;;;;-144.19;100.00;78366.94;6165384;23;20470;-88
2022/01/16 09:19:22;;;;;;;78.37;33.27;;;;;;;-144.19;100.00;78370.88;6164388;23;20020;-88
2022/01/16 09:21:49;;;;;;;71.95;35.22;;;;;;;-144.19;100.00;78343.31;6187593;23;20100;-88
2022/01/16 09:24:16;;;;;;;81.57;32.30;;;;;;;-144.19;100.00;78341.34;6161662;23;20024;-86
2022/01/16 09:26:42;;;;;;;77.30;36.87;;;;;;;-144.19;100.00;78355.13;6160654;23;20457;-85
2022/01/16 09:29:08;;;;;;;79.80;36.07;;;;;;;-144.19;100.00;78349.22;6161609;23;20757;-90
2022/01/16 09:31:35;;;;;;;81.80;34.67;;;;;;;-144.19;100.00;78355.13;6161755;23;20303;-86
2022/01/16 09:34:01;;;;;;;72.60;34.88;;;;;;;-144.19;100.00;78345.28;6162395;23;20245;-89
2022/01/16 09:36:28;;;;;;;75.72;36.08;;;;;;;-144.19;100.00;78339.38;6162438;23;20365;-85
2022/01/16 09:38:54;;;;;;;77.07;39.38;;;;;;;-144.19;100.00;78363.00;6161547;23;20053;-86
2022/01/16 09:41:21;;;;;;;76.63;33.67;;;;;;;-144.19;100.00;78341.34;6189246;23;20025;-90
2022/01/16 09:43:48;;;;;;;83.30;39.92;;;;;;;-144.19;100.00;78355.13;6162194;23;20029;-89
2022/01/16 09:46:14;;;;;;;70.30;34.30;;;;;;;-144.19;100.00;78364.97;6186208;23;20032;-83
2022/01/16 09:48:42;;;;;;;70.82;35.38;;;;;;;-144.19;100.00;78355.13;6160955;23;20024;-87
2022/01/16 09:51:09;;;;;;;72.40;32.63;;;;;;;-144.19;100.00;78357.09;6160231;23;20021;-85
2022/01/16 09:53:35;;;;;;;74.50;35.53;;;;;;;-144.19;100.00;78349.22;6186671;23;20517;-87
2022/01/16 09:56:02;;;;;;;70.18;33.13;;;;;;;-144.19;100.00;78343.31;6188165;23;20052;-87
2022/01/16 09:58:28;;;;;;;69.28;35.35;;;;;;;-144.19;100.00;78347.25;6187260;23;20025;-84
2022/01/16 10:00:55;;;;;;;70.45;34.72;;;;;;;-144.19;100.00;78323.63;6160738;23;20021;-86
2022/01/16 10:03:43;;;;;;;68.13;34.85;;;;;;;-144.19;100.00;78339.38;6162231;23;20036;-88
2022/01/16 10:06:21;;;;;;;74.10;36.33;;;;;;;-144.19;100.00;78319.69;6161183;23;20021;-84
2022/01/16 10:08:50;;;;;;;73.95;36.45;;;;;;;-144.19;100.00;78313.78;6160774;23;20017;-88
2022/01/16 10:11:24;;;;;;;72.22;37.15;;;;;;;-144.19;100.00;78315.75;6186094;23;20021;-88
2022/01/16 10:14:01;;;;;;;75.75;37.70;;;;;;;-144.19;100.00;78292.09;6157790;23;20029;-87
2022/01/16 10:16:31;;;;;;;63.93;36.37;;;;;;;-144.19;100.00;78307.88;6185522;23;20634;-89
2022/01/16 10:18:59;;;;;;;68.78;34.53;;;;;;;-144.19;100.00;78307.88;6185765;23;20241;-86
2022/01/16 10:21:40;;;;;;;68.20;36.10;;;;;;;-144.19;100.00;78299.97;6159907;23;20027;-89
2022/01/16 10:24:28;;;;;;;66.07;34.92;;;;;;;-144.19;100.00;78292.09;6158652;23;20017;-87
2022/01/16 10:27:10;;;;;;;67.93;35.30;;;;;;;-144.19;100.00;78286.19;6158930;23;20027;-86
2022/01/16 10:29:43;;;;;;;64.93;35.20;;;;;;;-144.19;100.00;78292.09;6159244;23;20028;-87
2022/01/16 10:32:17;;;;;;;59.45;33.85;;;;;;;-144.19;100.00;78276.34;6157921;23;20484;-86
2022/01/16 10:34:45;;;;;;;68.05;34.05;;;;;;;-144.19;100.00;78266.50;6159997;23;20021;-87
2022/01/16 10:37:20;;;;;;;65.90;36.08;;;;;;;-144.19;100.00;78233.03;6158398;23;20116;-87
2022/01/16 10:40:10;;;;;;;58.15;34.00;;;;;;;-144.19;100.00;78235.00;6159041;23;20025;-88
2022/01/16 10:42:39;;;;;;;64.40;33.47;;;;;;;-144.19;100.00;78240.91;6185777;23;20445;-87
2022/01/16 10:45:09;;;;;;;55.95;33.47;;;;;;;-144.19;100.00;78233.03;6159928;23;20025;-86
2022/01/16 10:47:41;;;;;;;59.90;33.70;;;;;;;-144.19;100.00;78231.06;6171072;23;20028;-87
2022/01/16 10:50:15;;;;;;;59.05;34.90;;;;;;;-144.19;100.00;78235.00;6183331;23;20027;-87
2022/01/16 10:52:54;;;;;;;59.78;35.80;;;;;;;-144.19;100.00;78229.09;6182873;23;20025;-86
2022/01/16 10:55:41;;;;;;;63.88;34.15;;;;;;;-144.19;100.00;78231.06;6184815;23;20099;-85
2022/01/16 10:58:16;;;;;;;60.42;33.70;;;;;;;-144.19;100.00;78229.09;6182610;23;20357;-83
2022/01/16 11:00:45;;;;;;;55.42;32.10;;;;;;;-144.19;100.00;78231.06;6184595;23;20032;-86
2022/01/16 11:03:13;;;;;;;55.83;31.60;;;;;;;-144.19;100.00;78236.97;6177890;23;20385;-88
2022/01/16 11:06:15;;;;;;;61.17;34.40;;;;;;;-144.19;100.00;78223.19;6184856;23;20029;-88
2022/01/16 11:09:08;;;;;;;60.75;32.40;;;;;;;-144.19;100.00;78233.03;6181795;23;20017;-85
2022/01/16 11:11:35;;;;;;;57.67;33.10;;;;;;;-144.19;100.00;78213.34;6176680;23;20049;-87
2022/01/16 11:14:05;;;;;;;56.78;31.75;;;;;;;-144.19;100.00;78221.22;6179710;23;20457;-88
2022/01/16 11:16:32;;;;;;;55.05;31.90;;;;;;;-144.19;100.00;78219.25;6181408;23;20021;-90
2022/01/16 11:19:01;;;;;;;54.60;33.17;;;;;;;-144.19;100.00;78209.41;6183557;23;20027;-87
2022/01/16 11:21:32;;;;;;;58.15;31.70;;;;;;;-144.19;100.00;78213.34;6181571;23;20021;-86
2022/01/16 11:26:44;;;;;;;48.45;30.15;;;;;;;-144.19;100.00;78221.22;6182561;23;20042;-87
2022/01/16 11:29:11;;;;;;;;;;;;;;;-144.19;100.00;78207.44;6180962;23;20017;-87
2022/01/16 11:31:38;;;;;;;49.50;29.00;;;;;;;-144.19;100.00;78185.78;6180503;23;19920;-87
2022/01/16 11:34:04;;;;;;;55.28;31.27;;;;;;;-144.19;100.00;78183.81;6179394;23;20072;-90
2022/01/16 11:36:32;;;;;;;48.80;30.27;;;;;;;-144.19;100.00;78173.94;6180383;23;20029;-87
2022/01/16 11:39:00;;;;;;;53.67;30.02;;;;;;;-144.19;100.00;78170.00;6182330;23;20017;-87
2022/01/16 11:41:35;;;;;;;45.40;29.75;;;;;;;-144.19;100.00;78173.94;6182249;23;20100;-87
2022/01/16 11:44:05;;;;;;;45.55;27.80;;;;;;;-144.19;100.00;78177.91;6181608;23;20020;-87
2022/01/16 11:46:40;;;;;;;44.30;27.73;;;;;;;-144.19;100.00;78160.16;6179484;23;20017;-87
2022/01/16 11:49:13;;;;;;;51.60;29.83;;;;;;;-144.19;100.00;78183.81;6182779;23;20027;-88